Time;durP1;ratioP1;P1;durP2;ratioP2;P2;SDS_P1;SDS_P2;PMS_P1;PMS_P2;Temp;Humidity;BMP_temperature;BMP_pressure;BME280_temperature;BME280_humidity;BME280_pressure;Samples;Min_cycle;Max_cycle;Signal;HPM_P1;HPM_P2
2023/12/07 00:02:17;;;;;;;37.33;34.10;;;5.50;99.90;;;;;;5015147;28;20034;-68
2023/12/07 00:04:43;;;;;;;32.30;25.60;;;5.40;99.90;;;;;;5019182;28;20030;-67
2023/12/07 00:07:09;;;;;;;43.23;39.30;;;5.40;99.90;;;;;;5033405;28;20033;-68
2023/12/07 00:09:35;;;;;;;43.03;39.23;;;5.40;99.90;;;;;;5032298;28;20044;-67
2023/12/07 00:12:01;;;;;;;35.17;31.70;;;5.40;99.90;;;;;;5028744;28;20405;-67
2023/12/07 00:14:27;;;;;;;34.27;30.77;;;5.40;99.90;;;;;;5033453;28;20033;-67
2023/12/07 00:16:54;;;;;;;46.38;42.05;;;5.50;99.90;;;;;;5031381;28;20037;-68
2023/12/07 00:19:20;;;;;;;41.43;37.47;;;5.50;99.90;;;;;;5032449;28;20058;-67
2023/12/07 00:21:46;;;;;;;34.40;31.50;;;5.50;99.90;;;;;;5031566;28;20394;-67
2023/12/07 00:24:12;;;;;;;27.07;24.37;;;5.40;99.90;;;;;;5031226;28;20048;-67
2023/12/07 00:26:38;;;;;;;30.10;27.03;;;5.40;99.90;;;;;;5030846;28;20048;-67
2023/12/07 00:29:04;;;;;;;26.97;24.27;;;5.40;99.90;;;;;;5013290;28;20327;-68
2023/12/07 00:31:30;;;;;;;27.60;24.93;;;5.40;99.90;;;;;;5028714;28;20037;-67
2023/12/07 00:33:56;;;;;;;37.80;34.47;;;5.40;99.90;;;;;;5032848;28;20046;-67
2023/12/07 00:36:22;;;;;;;37.87;34.23;;;5.40;99.90;;;;;;5032197;28;20038;-68
2023/12/07 00:38:48;;;;;;;37.43;34.23;;;5.50;99.90;;;;;;5030059;28;20037;-68
2023/12/07 00:41:14;;;;;;;29.10;26.57;;;5.50;99.90;;;;;;5032653;28;20390;-67
2023/12/07 00:43:40;;;;;;;29.23;25.80;;;5.50;99.90;;;;;;5032978;28;20033;-67
2023/12/07 00:46:07;;;;;;;26.83;24.33;;;5.50;99.90;;;;;;5022778;28;20463;-67
2023/12/07 00:48:33;;;;;;;33.90;30.63;;;5.50;99.90;;;;;;5032445;28;20053;-67
2023/12/07 00:50:59;;;;;;;26.07;23.67;;;5.50;99.90;;;;;;5025858;28;20489;-68
2023/12/07 00:53:26;;;;;;;31.03;27.60;;;5.50;99.90;;;;;;5018920;28;20045;-68
2023/12/07 00:55:52;;;;;;;26.10;23.43;;;5.50;99.90;;;;;;5018686;28;20049;-67
2023/12/07 00:58:18;;;;;;;25.63;23.23;;;5.50;99.90;;;;;;5020822;28;20383;-67
2023/12/07 01:00:44;;;;;;;25.07;22.47;;;5.50;99.90;;;;;;5026726;28;20054;-67
2023/12/07 01:03:10;;;;;;;31.67;29.27;;;5.50;99.90;;;;;;5013374;28;20478;-68
2023/12/07 01:05:36;;;;;;;32.17;29.27;;;5.50;99.90;;;;;;5026252;28;20029;-68
2023/12/07 01:08:03;;;;;;;39.87;36.47;;;5.50;99.90;;;;;;5032523;28;20030;-67
2023/12/07 01:10:29;;;;;;;30.80;27.57;;;5.50;99.90;;;;;;5030079;28;20041;-67
2023/12/07 01:12:55;;;;;;;26.57;24.23;;;5.50;99.90;;;;;;5015119;28;20034;-67
2023/12/07 01:15:21;;;;;;;25.43;22.87;;;5.50;99.90;;;;;;5030492;28;20379;-68
2023/12/07 01:17:47;;;;;;;30.87;28.47;;;5.50;99.90;;;;;;5032245;28;20398;-67
2023/12/07 01:20:13;;;;;;;26.93;24.33;;;5.50;99.90;;;;;;5032192;28;20045;-67
2023/12/07 01:22:42;;;;;;;30.87;28.30;;;5.50;99.90;;;;;;5032153;28;20036;-68
2023/12/07 01:25:08;;;;;;;33.50;24.30;;;5.50;99.90;;;;;;5031796;28;20045;-68
2023/12/07 01:27:35;;;;;;;32.77;29.87;;;5.50;99.90;;;;;;5031255;28;20037;-67
2023/12/07 01:30:01;;;;;;;23.47;21.10;;;5.50;99.90;;;;;;5031689;28;20033;-68
2023/12/07 01:32:27;;;;;;;28.97;26.20;;;5.50;99.90;;;;;;5031247;28;20049;-67
2023/12/07 01:34:53;;;;;;;24.90;22.80;;;5.50;99.90;;;;;;5032223;28;20030;-68
2023/12/07 01:37:19;;;;;;;23.83;21.33;;;5.60;99.90;;;;;;5031397;28;20049;-68
2023/12/07 01:39:45;;;;;;;19.93;18.13;;;5.50;99.90;;;;;;5024597;28;20040;-68
2023/12/07 01:42:14;;;;;;;25.50;23.17;;;5.60;99.90;;;;;;5021741;28;20037;-67
2023/12/07 01:44:40;;;;;;;22.33;20.00;;;5.50;99.90;;;;;;5031824;28;20045;-67
2023/12/07 01:47:07;;;;;;;20.73;18.77;;;5.60;99.90;;;;;;5015334;28;20053;-68
2023/12/07 01:49:34;;;;;;;24.33;21.70;;;5.60;99.90;;;;;;5020549;28;20403;-68
2023/12/07 01:52:02;;;;;;;23.47;21.17;;;5.60;99.90;;;;;;5025986;28;20025;-67
2023/12/07 01:54:29;;;;;;;26.17;23.97;;;5.60;99.90;;;;;;5030451;28;20037;-67
2023/12/07 01:56:56;;;;;;;27.87;25.17;;;5.60;99.90;;;;;;5031019;28;20498;-67
2023/12/07 01:59:22;;;;;;;24.77;22.27;;;5.60;99.90;;;;;;5030976;28;20151;-68
2023/12/07 02:01:48;;;;;;;21.43;19.63;;;5.60;99.90;;;;;;5017978;28;20034;-67
2023/12/07 02:04:14;;;;;;;17.37;16.03;;;5.60;99.90;;;;;;5012572;28;20033;-68
2023/12/07 02:06:40;;;;;;;21.60;19.80;;;5.60;99.90;;;;;;5021114;28;20029;-67
2023/12/07 02:09:07;;;;;;;23.17;20.97;;;5.60;99.90;;;;;;5023390;28;20389;-68
2023/12/07 02:11:33;;;;;;;20.43;18.40;;;5.60;99.90;;;;;;5024896;28;20029;-67
2023/12/07 02:13:59;;;;;;;24.10;21.70;;;5.60;99.90;;;;;;5031351;28;20034;-68
2023/12/07 02:16:38;;;;;;;22.17;20.33;;;5.60;99.90;;;;;;5025962;28;20034;-67
2023/12/07 02:19:26;;;;;;;21.43;19.27;;;5.60;99.90;;;;;;5030572;28;20037;-68
2023/12/07 02:21:56;;;;;;;17.90;16.07;;;5.70;99.90;;;;;;5029112;28;20045;-68
2023/12/07 02:24:22;;;;;;;17.70;15.97;;;5.70;99.90;;;;;;5020035;28;20030;-67
2023/12/07 02:26:50;;;;;;;21.70;20.10;;;5.70;99.90;;;;;;5010325;28;20056;-67
2023/12/07 02:29:16;;;;;;;19.97;18.47;;;5.70;99.90;;;;;;5035440;28;20482;-68
2023/12/07 02:31:42;;;;;;;19.63;17.80;;;5.80;99.90;;;;;;5028196;28;20041;-67
2023/12/07 02:34:09;;;;;;;25.70;23.53;;;5.80;99.90;;;;;;5021902;28;20446;-68
2023/12/07 02:36:36;;;;;;;23.95;21.67;;;5.80;99.90;;;;;;5026084;28;20050;-67
2023/12/07 02:39:03;;;;;;;18.30;16.50;;;5.80;99.90;;;;;;5022356;28;20029;-68
2023/12/07 02:41:31;;;;;;;20.63;18.63;;;5.80;99.90;;;;;;5023887;28;20493;-68
2023/12/07 02:43:57;;;;;;;20.40;18.53;;;5.90;99.90;;;;;;5013959;28;20034;-68
2023/12/07 02:46:24;;;;;;;18.98;17.38;;;5.90;99.90;;;;;;5026992;28;20034;-68
2023/12/07 02:48:51;;;;;;;22.97;21.23;;;5.90;99.90;;;;;;5034472;28;20037;-68
2023/12/07 02:51:17;;;;;;;20.13;18.00;;;6.00;99.90;;;;;;5032988;28;20024;-68
2023/12/07 02:53:43;;;;;;;19.13;17.37;;;6.00;99.90;;;;;;5032605;28;20041;-67
2023/12/07 02:56:09;;;;;;;20.13;18.13;;;6.00;99.90;;;;;;5033924;28;20049;-68
2023/12/07 02:58:35;;;;;;;22.93;20.13;;;6.00;99.90;;;;;;5034821;28;20044;-68
2023/12/07 03:01:01;;;;;;;19.80;18.10;;;6.00;99.90;;;;;;5019099;28;20056;-68
2023/12/07 03:03:27;;;;;;;29.00;26.55;;;5.90;99.90;;;;;;5033761;28;20037;-68
2023/12/07 03:05:53;;;;;;;35.97;32.90;;;5.90;99.90;;;;;;5034540;28;20397;-67
2023/12/07 03:08:19;;;;;;;29.13;26.95;;;5.90;99.90;;;;;;5034689;28;20025;-68
2023/12/07 03:10:45;;;;;;;34.40;31.87;;;5.90;99.90;;;;;;5030793;28;20034;-68
2023/12/07 03:13:11;;;;;;;30.47;28.07;;;5.80;99.90;;;;;;5014939;28;20033;-68
2023/12/07 03:15:37;;;;;;;29.80;27.57;;;5.70;99.90;;;;;;5027411;28;20043;-67
2023/12/07 03:18:04;;;;;;;27.43;25.53;;;5.70;99.90;;;;;;5034619;28;20032;-68
2023/12/07 03:20:30;;;;;;;43.33;40.57;;;5.60;99.90;;;;;;5021138;28;20034;-68
2023/12/07 03:22:56;;;;;;;36.80;34.37;;;5.60;99.90;;;;;;5034782;28;20497;-67
2023/12/07 03:25:22;;;;;;;31.93;29.27;;;5.60;99.90;;;;;;5033911;28;20040;-67
2023/12/07 03:27:48;;;;;;;38.60;35.70;;;5.60;99.90;;;;;;5029983;28;20034;-68
2023/12/07 03:30:14;;;;;;;38.00;35.53;;;5.70;99.90;;;;;;5025770;28;20048;-68
2023/12/07 03:32:40;;;;;;;35.57;33.03;;;5.70;99.90;;;;;;5034341;28;20062;-68
2023/12/07 03:35:06;;;;;;;25.77;23.83;;;5.60;99.90;;;;;;5025006;28;20034;-67
2023/12/07 03:37:32;;;;;;;21.13;19.47;;;5.70;99.90;;;;;;5033138;28;20056;-67
2023/12/07 03:39:59;;;;;;;48.37;44.87;;;5.70;99.90;;;;;;5033344;28;20049;-67
2023/12/07 03:42:25;;;;;;;31.83;29.60;;;5.60;99.90;;;;;;5015526;28;20057;-68
2023/12/07 03:44:51;;;;;;;45.93;42.83;;;5.70;99.90;;;;;;5014432;28;20033;-68
2023/12/07 03:47:17;;;;;;;34.67;32.13;;;5.70;99.90;;;;;;5015952;28;20041;-67
2023/12/07 03:49:44;;;;;;;46.93;43.97;;;5.70;99.90;;;;;;5029808;28;20517;-68
2023/12/07 03:52:10;;;;;;;24.97;23.27;;;5.60;99.90;;;;;;5031597;28;20077;-67
2023/12/07 03:54:37;;;;;;;48.47;45.50;;;5.60;99.90;;;;;;5032798;28;20040;-67
2023/12/07 03:57:04;;;;;;;32.87;30.53;;;5.60;99.90;;;;;;5028803;28;20400;-68
2023/12/07 03:59:30;;;;;;;32.87;30.63;;;5.60;99.90;;;;;;5033156;28;20430;-68
2023/12/07 04:01:56;;;;;;;31.17;28.80;;;5.70;99.90;;;;;;5018640;28;20041;-68
2023/12/07 04:04:22;;;;;;;27.53;25.60;;;5.70;99.90;;;;;;5012646;28;20521;-67
2023/12/07 04:06:49;;;;;;;55.37;52.13;;;5.60;99.90;;;;;;5021866;28;20038;-68
2023/12/07 04:09:15;;;;;;;50.63;47.33;;;5.70;99.90;;;;;;5033015;28;20041;-67
2023/12/07 04:11:41;;;;;;;36.47;33.97;;;5.70;99.90;;;;;;5033146;28;20036;-68
2023/12/07 04:14:07;;;;;;;40.00;37.30;;;5.70;99.90;;;;;;5033675;28;20036;-68
2023/12/07 04:16:33;;;;;;;39.17;36.07;;;5.80;99.90;;;;;;5032476;28;20049;-68
2023/12/07 04:18:59;;;;;;;39.00;36.47;;;5.80;99.90;;;;;;5019325;28;20394;-67
2023/12/07 04:21:25;;;;;;;52.97;49.83;;;5.70;99.90;;;;;;5017217;28;20037;-68
2023/12/07 04:23:51;;;;;;;20.30;18.60;;;5.70;99.90;;;;;;5013541;28;20034;-67
2023/12/07 04:26:17;;;;;;;19.60;17.83;;;5.70;99.90;;;;;;5022706;28;20029;-67
2023/12/07 04:28:43;;;;;;;53.97;50.88;;;5.70;99.90;;;;;;5027442;28;20038;-68
2023/12/07 04:31:09;;;;;;;20.80;18.87;;;5.70;99.90;;;;;;5017130;28;20061;-67
2023/12/07 04:33:36;;;;;;;19.63;17.87;;;5.70;99.90;;;;;;5013776;28;20034;-67
2023/12/07 04:36:04;;;;;;;21.30;19.63;;;5.70;99.90;;;;;;5028137;28;20045;-68
2023/12/07 04:38:30;;;;;;;17.97;16.57;;;5.80;99.90;;;;;;5032171;28;20053;-67
2023/12/07 04:40:56;;;;;;;34.30;31.70;;;5.70;99.90;;;;;;5032736;28;20478;-68
2023/12/07 04:43:23;;;;;;;33.57;31.33;;;5.70;99.90;;;;;;5021606;28;20088;-68
2023/12/07 04:45:49;;;;;;;16.50;15.18;;;5.80;99.90;;;;;;5012535;28;20038;-67
2023/12/07 04:48:15;;;;;;;16.47;14.77;;;5.70;99.90;;;;;;5025549;28;20059;-68
2023/12/07 04:50:41;;;;;;;17.57;16.17;;;5.70;99.90;;;;;;5032203;28;20052;-67
2023/12/07 04:53:07;;;;;;;20.07;18.93;;;5.70;99.90;;;;;;5020504;28;20049;-67
2023/12/07 04:55:33;;;;;;;16.67;15.37;;;5.70;99.90;;;;;;5025846;28;20044;-68
2023/12/07 04:57:59;;;;;;;26.07;24.07;;;5.70;99.90;;;;;;5032725;28;20037;-68
2023/12/07 05:00:27;;;;;;;18.13;16.53;;;5.70;99.90;;;;;;5029815;28;20431;-68
2023/12/07 05:02:53;;;;;;;20.53;18.77;;;5.80;99.90;;;;;;5019900;28;20033;-67
2023/12/07 05:05:19;;;;;;;27.53;25.63;;;5.80;99.90;;;;;;5013410;28;20390;-68
2023/12/07 05:07:45;;;;;;;20.10;18.73;;;5.80;99.90;;;;;;5032237;28;20036;-68
2023/12/07 05:10:11;;;;;;;20.33;18.70;;;5.70;99.90;;;;;;5031518;28;20497;-67
2023/12/07 05:12:37;;;;;;;20.70;19.00;;;5.70;99.90;;;;;;5028192;28;20033;-68
2023/12/07 05:15:05;;;;;;;21.97;20.27;;;5.70;99.90;;;;;;5021264;28;20391;-67
2023/12/07 05:17:31;;;;;;;21.60;20.10;;;5.70;99.90;;;;;;5027731;28;20056;-68
2023/12/07 05:19:57;;;;;;;23.90;22.30;;;5.70;99.90;;;;;;5021559;28;20041;-67
2023/12/07 05:22:23;;;;;;;20.83;19.43;;;5.70;99.90;;;;;;5024971;28;20389;-67
2023/12/07 05:24:50;;;;;;;20.27;18.83;;;5.70;99.90;;;;;;5026656;28;20033;-67
2023/12/07 05:27:16;;;;;;;19.90;18.30;;;5.80;99.90;;;;;;5027086;28;20490;-66
2023/12/07 05:29:42;;;;;;;20.30;18.70;;;5.80;99.90;;;;;;5026803;28;20030;-66
2023/12/07 05:32:08;;;;;;;20.87;18.90;;;5.80;99.90;;;;;;5021347;28;20398;-66
2023/12/07 05:34:35;;;;;;;19.60;17.97;;;5.90;99.90;;;;;;5030810;28;20048;-66
2023/12/07 05:37:01;;;;;;;17.77;16.13;;;5.90;99.90;;;;;;5029504;28;20422;-67
2023/12/07 05:39:27;;;;;;;18.53;16.73;;;5.90;99.90;;;;;;5027568;28;20470;-67
2023/12/07 05:41:53;;;;;;;18.77;17.13;;;5.90;99.90;;;;;;5028804;28;20045;-67
2023/12/07 05:44:22;;;;;;;20.23;18.67;;;6.10;99.90;;;;;;5028543;28;20037;-67
2023/12/07 05:46:48;;;;;;;20.67;19.13;;;6.10;99.90;;;;;;5024339;28;20501;-67
2023/12/07 05:49:15;;;;;;;24.95;23.13;;;6.10;99.90;;;;;;5018436;28;20482;-67
2023/12/07 05:51:41;;;;;;;27.02;25.23;;;6.00;99.90;;;;;;5025640;28;20030;-67
2023/12/07 05:54:07;;;;;;;21.53;19.90;;;6.10;99.90;;;;;;5020120;28;20073;-67
2023/12/07 05:56:33;;;;;;;21.57;19.87;;;6.00;99.90;;;;;;5023309;28;20044;-66
2023/12/07 05:58:59;;;;;;;22.30;20.60;;;5.90;99.90;;;;;;5027791;28;20037;-67
2023/12/07 06:01:25;;;;;;;20.95;19.25;;;5.90;99.90;;;;;;5029311;28;20060;-67
2023/12/07 06:03:51;;;;;;;24.42;22.40;;;5.90;99.90;;;;;;5034223;28;20036;-67
2023/12/07 06:06:17;;;;;;;18.67;17.00;;;5.90;99.90;;;;;;5034849;28;20377;-67
2023/12/07 06:08:44;;;;;;;21.05;19.27;;;5.90;99.90;;;;;;5032998;28;20029;-67
2023/12/07 06:11:10;;;;;;;22.70;21.10;;;5.90;99.90;;;;;;5025816;28;20046;-67
2023/12/07 06:13:37;;;;;;;22.80;21.23;;;5.90;99.90;;;;;;5032651;28;20469;-69
2023/12/07 06:16:04;;;;;;;21.10;19.60;;;5.90;99.90;;;;;;5027393;28;20053;-67
2023/12/07 06:18:30;;;;;;;23.50;21.87;;;5.90;99.90;;;;;;5030332;28;20033;-67
2023/12/07 06:20:56;;;;;;;22.67;20.90;;;5.80;99.90;;;;;;5030316;28;20044;-67
2023/12/07 06:23:23;;;;;;;21.67;20.53;;;5.80;99.90;;;;;;5034722;28;20029;-67
2023/12/07 06:25:49;;;;;;;26.17;24.47;;;5.80;99.90;;;;;;5028972;28;20045;-67
2023/12/07 06:28:15;;;;;;;22.90;21.57;;;5.80;99.90;;;;;;5033589;28;20025;-67
2023/12/07 06:30:41;;;;;;;24.53;22.83;;;5.80;99.90;;;;;;5031160;28;20473;-67
2023/12/07 06:33:07;;;;;;;20.27;18.73;;;5.80;99.90;;;;;;5032082;28;20037;-67
2023/12/07 06:35:33;;;;;;;19.93;18.37;;;5.80;99.90;;;;;;5028994;28;20036;-67
2023/12/07 06:37:59;;;;;;;21.47;18.17;;;5.80;99.90;;;;;;5033978;28;20049;-67
2023/12/07 06:40:25;;;;;;;27.70;25.70;;;5.80;99.90;;;;;;5034165;28;20034;-67
2023/12/07 06:42:51;;;;;;;20.00;18.70;;;5.80;99.90;;;;;;5030157;28;20030;-67
2023/12/07 06:45:18;;;;;;;29.83;27.92;;;5.80;99.90;;;;;;5022316;28;20022;-68
2023/12/07 06:47:44;;;;;;;21.80;20.40;;;5.80;99.90;;;;;;5032466;28;20033;-67
2023/12/07 06:50:10;;;;;;;20.40;18.83;;;5.80;99.90;;;;;;5028927;28;20044;-67
2023/12/07 06:52:36;;;;;;;31.33;29.20;;;5.80;99.90;;;;;;5033849;28;20032;-67
2023/12/07 06:55:03;;;;;;;28.63;26.77;;;5.80;99.90;;;;;;5031254;28;20030;-68
2023/12/07 06:57:29;;;;;;;30.33;28.33;;;5.80;99.90;;;;;;5031129;28;20041;-67
2023/12/07 06:59:55;;;;;;;20.80;19.30;;;5.80;99.90;;;;;;5033450;28;20041;-69
2023/12/07 07:02:21;;;;;;;25.63;23.70;;;5.80;99.90;;;;;;5032115;28;20053;-67
2023/12/07 07:04:48;;;;;;;31.00;29.10;;;5.70;99.90;;;;;;5015468;28;20041;-67
2023/12/07 07:07:17;;;;;;;34.77;32.60;;;5.70;99.90;;;;;;5031588;28;20034;-69
2023/12/07 07:09:43;;;;;;;19.63;18.00;;;5.70;99.90;;;;;;5024244;28;20032;-67
2023/12/07 07:12:10;;;;;;;33.60;31.27;;;5.70;99.90;;;;;;5032121;28;20037;-67
2023/12/07 07:14:36;;;;;;;31.30;29.10;;;5.70;99.90;;;;;;5034021;28;20040;-67
2023/12/07 07:17:04;;;;;;;32.30;30.17;;;5.70;99.90;;;;;;5032808;28;20049;-67
2023/12/07 07:19:30;;;;;;;28.87;26.80;;;5.70;99.90;;;;;;5031499;28;20037;-68
2023/12/07 07:21:56;;;;;;;26.00;24.10;;;5.70;99.90;;;;;;5034103;28;20053;-67
2023/12/07 07:24:22;;;;;;;36.20;33.80;;;5.70;99.90;;;;;;5033700;28;20040;-67
2023/12/07 07:26:48;;;;;;;28.93;27.03;;;5.60;99.90;;;;;;5033496;28;20038;-67
2023/12/07 07:29:14;;;;;;;28.73;26.83;;;5.60;99.90;;;;;;5033938;28;20026;-67
2023/12/07 07:31:40;;;;;;;27.77;26.00;;;5.60;99.90;;;;;;5033246;28;20520;-67
2023/12/07 07:34:07;;;;;;;34.47;32.07;;;5.60;99.90;;;;;;5033807;28;20068;-67
2023/12/07 07:36:33;;;;;;;24.17;22.33;;;5.50;99.90;;;;;;5027483;28;20044;-67
2023/12/07 07:39:00;;;;;;;35.03;32.53;;;5.50;99.90;;;;;;5033959;28;20394;-67
2023/12/07 07:41:26;;;;;;;32.83;30.70;;;5.50;99.90;;;;;;5033642;28;20046;-67
2023/12/07 07:43:52;;;;;;;37.93;35.47;;;5.50;99.90;;;;;;5032885;28;20034;-67
2023/12/07 07:46:18;;;;;;;23.50;21.90;;;5.50;99.90;;;;;;5032932;28;20036;-67
2023/12/07 07:48:44;;;;;;;31.40;29.10;;;5.40;99.90;;;;;;5033597;28;20025;-67
2023/12/07 07:51:10;;;;;;;30.20;27.97;;;5.50;99.90;;;;;;5033202;28;20030;-67
2023/12/07 07:53:36;;;;;;;26.07;24.23;;;5.40;99.90;;;;;;5033904;28;20045;-67
2023/12/07 07:56:02;;;;;;;25.73;23.83;;;5.40;99.90;;;;;;5033409;28;20082;-67
2023/12/07 07:58:28;;;;;;;35.03;32.57;;;5.40;99.90;;;;;;5033092;28;20026;-67
2023/12/07 08:00:54;;;;;;;26.20;24.47;;;5.50;99.90;;;;;;5030957;28;20057;-67
2023/12/07 08:03:20;;;;;;;22.43;20.93;;;5.50;99.90;;;;;;5033392;28;20040;-67
2023/12/07 08:05:47;;;;;;;23.40;21.30;;;5.50;99.90;;;;;;5033102;28;20413;-67
2023/12/07 08:08:13;;;;;;;22.93;21.43;;;5.40;99.90;;;;;;5033293;28;20044;-67
2023/12/07 08:10:39;;;;;;;26.73;24.63;;;5.40;99.90;;;;;;5030275;28;20037;-67
2023/12/07 08:13:07;;;;;;;49.00;46.17;;;5.40;99.90;;;;;;5032777;28;20045;-67
2023/12/07 08:15:34;;;;;;;30.40;28.13;;;5.40;99.90;;;;;;5031641;28;20045;-67
2023/12/07 08:18:00;;;;;;;28.77;26.70;;;5.40;99.90;;;;;;5029756;28;20041;-67
2023/12/07 08:20:26;;;;;;;22.30;20.43;;;5.40;99.90;;;;;;5029630;28;20033;-67
2023/12/07 08:22:52;;;;;;;33.57;31.80;;;5.40;99.90;;;;;;5031213;28;20469;-67
2023/12/07 08:25:21;;;;;;;28.83;26.83;;;5.40;99.90;;;;;;5032681;28;20103;-67
2023/12/07 08:27:47;;;;;;;31.77;29.73;;;5.40;99.90;;;;;;5032266;28;20049;-67
2023/12/07 08:30:13;;;;;;;44.47;41.73;;;5.30;99.90;;;;;;5027812;28;20041;-67
2023/12/07 08:32:39;;;;;;;54.73;51.47;;;5.30;99.90;;;;;;5031574;28;20059;-67
2023/12/07 08:35:06;;;;;;;42.07;39.60;;;5.30;99.90;;;;;;5032119;28;20040;-67
2023/12/07 08:37:37;;;;;;;47.57;44.83;;;5.30;99.90;;;;;;5032899;28;20032;-67
2023/12/07 08:40:03;;;;;;;;;;;5.30;99.90;;;;;;5033370;28;20026;-67
2023/12/07 08:42:31;;;;;;;40.73;38.20;;;5.30;99.90;;;;;;5031523;28;20277;-68
2023/12/07 08:44:58;;;;;;;42.97;40.33;;;5.30;99.90;;;;;;5029411;28;20037;-68
2023/12/07 08:47:27;;;;;;;32.40;30.13;;;5.30;99.90;;;;;;5018396;28;20053;-68
2023/12/07 08:49:53;;;;;;;32.50;30.23;;;5.30;99.90;;;;;;5025484;28;20045;-68
2023/12/07 08:52:19;;;;;;;27.47;25.50;;;5.40;99.90;;;;;;5028685;28;20045;-68
2023/12/07 08:54:46;;;;;;;36.70;34.33;;;5.30;99.90;;;;;;5032719;28;20033;-68
2023/12/07 08:57:12;;;;;;;29.60;27.70;;;5.30;99.90;;;;;;5031189;28;20068;-68
2023/12/07 08:59:38;;;;;;;45.17;42.43;;;5.30;99.90;;;;;;5032504;28;20049;-68
2023/12/07 09:02:05;;;;;;;35.90;33.40;;;5.40;99.90;;;;;;5028936;28;20056;-68
2023/12/07 09:04:31;;;;;;;33.77;31.67;;;5.40;99.90;;;;;;5032467;28;20037;-68
2023/12/07 09:06:57;;;;;;;30.30;28.27;;;5.40;99.90;;;;;;5032114;28;20037;-68
2023/12/07 09:09:25;;;;;;;43.57;40.87;;;5.40;99.90;;;;;;5032559;28;20036;-68
2023/12/07 09:11:51;;;;;;;43.17;40.53;;;5.40;99.90;;;;;;5031904;28;20045;-67
2023/12/07 09:14:17;;;;;;;46.80;44.03;;;5.40;99.90;;;;;;5032518;28;20489;-68
2023/12/07 09:16:46;;;;;;;18.10;17.00;;;5.40;99.90;;;;;;5021795;28;20117;-68
2023/12/07 09:19:13;;;;;;;47.10;44.30;;;5.40;99.90;;;;;;5020393;28;20036;-68
2023/12/07 09:21:40;;;;;;;33.40;31.13;;;5.50;99.90;;;;;;5030168;28;20053;-68
2023/12/07 09:24:06;;;;;;;32.83;30.63;;;5.50;99.90;;;;;;5030476;28;20028;-68
2023/12/07 09:26:33;;;;;;;66.23;62.13;;;5.50;99.90;;;;;;5031409;28;20037;-67
2023/12/07 09:28:59;;;;;;;32.70;30.63;;;5.50;99.90;;;;;;5031762;28;20028;-68
2023/12/07 09:31:25;;;;;;;60.43;56.87;;;5.50;99.90;;;;;;5030223;28;20048;-68
2023/12/07 09:33:53;;;;;;;55.40;52.30;;;5.50;99.90;;;;;;5021049;28;20042;-68
2023/12/07 09:36:21;;;;;;;28.73;26.93;;;5.50;99.90;;;;;;5021297;28;20036;-68
2023/12/07 09:38:47;;;;;;;38.90;36.40;;;5.60;99.90;;;;;;5031833;28;20068;-68
2023/12/07 09:41:13;;;;;;;28.85;26.45;;;5.60;99.90;;;;;;5031517;28;20053;-68
2023/12/07 09:43:39;;;;;;;39.20;36.73;;;5.60;99.90;;;;;;5030652;28;20145;-68
2023/12/07 09:46:06;;;;;;;35.53;33.40;;;5.70;99.90;;;;;;5031041;28;20052;-68
2023/12/07 09:48:32;;;;;;;28.97;27.33;;;5.70;99.90;;;;;;5030351;28;20046;-68
2023/12/07 09:50:59;;;;;;;31.37;29.20;;;5.70;99.90;;;;;;5031110;28;20048;-68
2023/12/07 09:53:32;;;;;;;35.77;33.30;;;5.70;99.90;;;;;;5032055;28;20036;-68
2023/12/07 09:55:59;;;;;;;30.17;28.27;;;5.80;99.90;;;;;;5029643;28;20045;-67
2023/12/07 09:58:25;;;;;;;31.40;29.43;;;5.80;99.90;;;;;;5032072;28;20033;-67
2023/12/07 10:00:51;;;;;;;26.63;24.70;;;5.70;99.90;;;;;;5025786;28;20034;-67
2023/12/07 10:03:23;;;;;;;34.10;31.83;;;5.70;99.90;;;;;;5013922;28;20048;-69
2023/12/07 10:05:57;;;;;;;31.98;30.05;;;5.80;99.90;;;;;;5026847;28;20036;-68
2023/12/07 10:08:49;;;;;;;49.50;46.80;;;5.90;99.90;;;;;;5031101;28;20041;-68
2023/12/07 10:11:15;;;;;;;27.30;25.77;;;5.90;99.90;;;;;;5018109;28;20053;-67
2023/12/07 10:13:41;;;;;;;16.93;15.77;;;5.80;99.90;;;;;;5029124;28;20053;-68
2023/12/07 10:16:18;;;;;;;24.43;22.87;;;5.80;99.90;;;;;;5029092;28;20038;-68
2023/12/07 10:18:44;;;;;;;21.80;20.43;;;5.80;99.90;;;;;;5030685;28;20053;-67
2023/12/07 10:21:11;;;;;;;20.30;18.90;;;5.80;99.90;;;;;;5030931;28;20052;-68
2023/12/07 10:23:37;;;;;;;20.03;18.70;;;5.80;99.90;;;;;;5029821;28;20052;-68
2023/12/07 10:26:05;;;;;;;31.40;29.43;;;5.80;99.90;;;;;;5028281;28;20052;-67
2023/12/07 10:28:31;;;;;;;24.83;23.07;;;5.70;99.90;;;;;;5030422;28;20021;-67
2023/12/07 10:30:58;;;;;;;30.33;28.27;;;5.70;99.90;;;;;;5013504;28;20030;-68
2023/12/07 10:33:26;;;;;;;34.93;32.80;;;5.70;99.90;;;;;;5023852;28;20037;-68
2023/12/07 10:35:52;;;;;;;33.50;31.27;;;5.70;99.90;;;;;;5023148;28;20048;-68
2023/12/07 10:38:19;;;;;;;19.60;18.07;;;5.80;99.90;;;;;;5030316;28;20394;-68
2023/12/07 10:40:49;;;;;;;54.03;50.93;;;5.80;99.90;;;;;;5030485;28;20049;-68
2023/12/07 10:43:16;;;;;;;46.33;43.58;;;5.80;99.90;;;;;;5029246;28;20432;-67
2023/12/07 10:45:43;;;;;;;35.37;33.17;;;5.80;99.90;;;;;;5029775;28;20033;-68
2023/12/07 10:48:09;;;;;;;32.13;30.20;;;5.80;99.90;;;;;;5033017;28;20041;-67
2023/12/07 10:50:45;;;;;;;31.47;29.13;;;5.80;99.90;;;;;;5034544;28;20045;-68
2023/12/07 10:53:21;;;;;;;34.20;32.03;;;5.80;99.90;;;;;;5033331;28;20041;-67
2023/12/07 10:55:59;;;;;;;32.53;30.50;;;5.80;99.90;;;;;;5029870;28;20042;-67
2023/12/07 10:58:26;;;;;;;39.97;37.63;;;5.80;99.90;;;;;;5030348;28;20030;-67
2023/12/07 11:00:53;;;;;;;34.53;32.33;;;6.00;99.90;;;;;;5032017;28;20433;-67
2023/12/07 11:03:19;;;;;;;47.77;44.97;;;6.00;99.90;;;;;;5033868;28;20048;-68
2023/12/07 11:05:46;;;;;;;22.37;20.90;;;6.00;99.90;;;;;;5032515;28;20034;-68
2023/12/07 11:08:21;;;;;;;59.57;56.07;;;6.00;99.90;;;;;;5033346;28;20052;-68
2023/12/07 11:11:02;;;;;;;51.80;48.70;;;6.00;99.90;;;;;;5029259;28;20036;-67
2023/12/07 11:13:30;;;;;;;18.30;16.80;;;6.00;99.90;;;;;;5029318;28;20026;-67
2023/12/07 11:15:57;;;;;;;44.73;40.83;;;6.00;99.90;;;;;;5025913;28;20362;-68
2023/12/07 11:18:26;;;;;;;24.40;22.70;;;6.00;99.90;;;;;;5032552;28;20487;-68
2023/12/07 11:20:52;;;;;;;44.57;41.70;;;6.00;99.90;;;;;;5025187;28;20405;-68
2023/12/07 11:23:19;;;;;;;24.00;21.67;;;6.00;99.90;;;;;;5031596;28;20053;-68
2023/12/07 11:25:49;;;;;;;38.63;35.67;;;6.00;99.90;;;;;;5031968;28;20041;-69
2023/12/07 11:28:15;;;;;;;55.83;52.27;;;6.00;99.90;;;;;;5012031;28;20053;-68
2023/12/07 11:30:43;;;;;;;44.47;41.47;;;6.10;99.90;;;;;;5027198;28;20485;-68
2023/12/07 11:33:09;;;;;;;31.43;29.57;;;6.10;99.90;;;;;;5031265;28;20060;-68
2023/12/07 11:36:00;;;;;;;61.93;57.93;;;6.10;99.90;;;;;;5031455;28;20399;-68
2023/12/07 11:38:26;;;;;;;24.55;22.63;;;6.10;99.90;;;;;;5031814;28;20041;-68
2023/12/07 11:40:52;;;;;;;52.58;48.60;;;6.20;99.90;;;;;;5031840;28;20375;-68
2023/12/07 11:43:35;;;;;;;34.80;32.27;;;6.20;99.90;;;;;;5031020;28;20155;-68
2023/12/07 11:46:01;;;;;;;63.38;59.58;;;6.20;99.90;;;;;;5032440;28;20044;-68
2023/12/07 11:48:27;;;;;;;65.63;61.95;;;6.30;99.90;;;;;;5032067;28;20032;-68
2023/12/07 11:51:04;;;;;;;36.03;33.70;;;6.40;99.90;;;;;;5032408;28;20413;-68
2023/12/07 11:53:31;;;;;;;19.63;18.27;;;6.40;99.90;;;;;;5023738;28;20034;-69
2023/12/07 11:55:58;;;;;;;22.73;21.10;;;6.50;99.90;;;;;;5032115;28;20025;-68
2023/12/07 11:58:28;;;;;;;39.45;36.97;;;6.50;99.90;;;;;;5032177;28;20033;-68
2023/12/07 12:00:54;;;;;;;40.03;37.35;;;6.60;99.90;;;;;;5031132;28;20048;-68
2023/12/07 12:03:20;;;;;;;23.52;22.02;;;6.60;99.90;;;;;;5032272;28;20520;-68
2023/12/07 12:05:46;;;;;;;61.38;57.65;;;6.60;99.90;;;;;;5031906;28;20385;-68
2023/12/07 12:08:12;;;;;;;24.50;22.92;;;6.60;99.90;;;;;;5029387;28;20505;-68
2023/12/07 12:10:40;;;;;;;25.88;24.05;;;6.70;99.90;;;;;;5031859;28;20037;-68
2023/12/07 12:13:06;;;;;;;31.25;29.08;;;6.70;99.90;;;;;;5033502;28;20033;-68
2023/12/07 12:15:32;;;;;;;30.27;28.38;;;6.70;99.90;;;;;;5031754;28;20041;-68
2023/12/07 12:17:58;;;;;;;31.00;28.85;;;6.70;99.90;;;;;;5031541;28;20056;-68
2023/12/07 12:20:27;;;;;;;38.20;35.78;;;6.70;99.90;;;;;;5029327;28;20038;-68
2023/12/07 12:22:54;;;;;;;50.22;47.25;;;6.80;99.90;;;;;;5030891;28;20060;-68
2023/12/07 12:25:25;;;;;;;43.83;41.05;;;6.90;99.90;;;;;;5031651;28;20033;-68
2023/12/07 12:27:52;;;;;;;36.40;33.88;;;6.90;99.90;;;;;;5030484;28;20050;-68
2023/12/07 12:30:19;;;;;;;33.25;30.75;;;6.90;99.90;;;;;;5030181;28;20025;-68
2023/12/07 12:32:45;;;;;;;24.15;22.52;;;6.80;99.90;;;;;;5031857;28;20056;-68
2023/12/07 12:35:15;;;;;;;28.02;26.10;;;6.80;99.90;;;;;;5030915;28;20033;-68
2023/12/07 12:37:44;;;;;;;32.38;29.98;;;6.90;99.90;;;;;;5015218;28;20040;-68